Queimados, Brazil
Current Conditions -  °F | °C
As of 12:00 PM on Sunday 21 Dec 2014 (Local Time) from SBGW Reporting Station
Broken Clouds Broken Clouds  
Wind Chill: 86°   Ceiling: 6700
Heat Index: 87°   Visibility: 6mi
Dew Point: 64°   Wind: 7mph
Humidity: 48%   Direction: 70°ENE
Pressure: 29.94"   Gusts: NA
Location:  22.45°S, 45.15°W
Report Text: SBGW 211400Z 07006KT 9999 SCT025 BKN067 30/18 Q1014
Loading
Personal Weather Stations






























Interactive Weather Map New forecast layout! Learn more

10-Day Weather Forecast

Advertisements
Track Severe Weather on mobile